Time;durP1;ratioP1;P1;durP2;ratioP2;P2;SDS_P1;SDS_P2;PMS_P1;PMS_P2;Temp;Humidity;BMP_temperature;BMP_pressure;BME280_temperature;BME280_humidity;BME280_pressure;Samples;Min_cycle;Max_cycle;Signal;HPM_P1;HPM_P2
2023/01/09 00:00:34;;;;;;;1.50;1.40;;;8.60;86.00;;;11.13;60.91;99409.09;5036966;28;20209;-55
2023/01/09 00:03:03;;;;;;;1.63;1.50;;;8.60;86.00;;;11.12;61.00;99411.94;5033645;28;20256;-56
2023/01/09 00:05:30;;;;;;;2.53;1.53;;;8.60;85.90;;;11.14;61.25;99409.91;5033531;28;20674;-56
2023/01/09 00:07:57;;;;;;;2.30;2.10;;;8.60;85.90;;;11.13;60.92;99405.63;5033872;28;20210;-57
2023/01/09 00:10:24;;;;;;;1.80;1.70;;;8.60;85.90;;;11.12;61.26;99406.66;5033473;28;20198;-55
2023/01/09 00:12:51;;;;;;;2.30;2.10;;;8.70;85.90;;;11.13;60.85;99398.53;5033688;28;20183;-56
2023/01/09 00:15:18;;;;;;;2.23;2.03;;;8.70;85.90;;;11.17;61.41;99402.38;5017141;28;20199;-57
2023/01/09 00:17:46;;;;;;;2.90;2.00;;;8.70;85.90;;;11.20;61.17;99388.78;5016662;28;20273;-54
2023/01/09 00:20:16;;;;;;;3.33;1.87;;;8.70;85.90;;;11.22;60.41;99392.00;5032691;28;20662;-56
2023/01/09 00:22:43;;;;;;;1.97;1.87;;;8.70;85.80;;;11.25;60.64;99393.41;5038067;28;20659;-56
2023/01/09 00:25:10;;;;;;;2.30;1.73;;;8.70;85.90;;;11.26;60.48;99387.13;5040076;28;20191;-56
2023/01/09 00:27:38;;;;;;;1.70;1.60;;;8.70;86.60;;;11.28;60.29;99385.09;5037304;28;20226;-57
2023/01/09 00:30:07;;;;;;;3.23;1.90;;;8.70;85.80;;;11.28;60.62;99379.81;5035735;28;20202;-58
2023/01/09 00:32:35;;;;;;;4.40;2.83;;;8.70;85.90;;;11.24;60.48;99371.56;5038084;28;20194;-57
2023/01/09 00:35:03;;;;;;;4.17;2.10;;;8.70;85.90;;;11.25;60.64;99374.97;5039802;28;20197;-55
2023/01/09 00:37:31;;;;;;;1.83;1.73;;;8.60;85.80;;;11.24;60.40;99368.94;5040033;28;20214;-56
2023/01/09 00:39:58;;;;;;;2.60;2.17;;;8.70;85.80;;;11.27;60.44;99363.22;5039645;28;20187;-57
2023/01/09 00:42:32;;;;;;;1.80;1.70;;;8.70;86.00;;;11.28;60.85;99364.84;5041191;28;20721;-56
2023/01/09 00:45:06;;;;;;;1.83;1.63;;;8.70;86.10;;;11.32;60.78;99363.38;5042306;28;20229;-55
2023/01/09 00:47:39;;;;;;;2.70;2.03;;;8.70;86.10;;;11.35;60.58;99362.16;5042749;28;20260;-57
2023/01/09 00:50:13;;;;;;;2.43;2.17;;;8.70;86.20;;;11.35;60.81;99359.50;5041875;28;20243;-57
2023/01/09 00:52:43;;;;;;;1.93;1.73;;;8.70;86.20;;;11.35;60.33;99359.50;5040798;28;20174;-57
2023/01/09 00:55:11;;;;;;;1.80;1.70;;;8.70;86.10;;;11.36;60.82;99353.25;5043052;28;20581;-57
2023/01/09 00:57:38;;;;;;;2.27;1.77;;;8.70;86.10;;;11.41;60.65;99353.41;5045022;28;20231;-57
2023/01/09 01:00:08;;;;;;;2.13;1.67;;;8.80;86.20;;;11.46;60.61;99361.44;5046699;28;20208;-55
2023/01/09 01:02:35;;;;;;;1.90;1.80;;;8.80;86.40;;;11.55;60.72;99349.66;5042173;28;20253;-57
2023/01/09 01:07:51;;;;;;;2.43;2.10;;;8.90;86.40;;;11.68;60.29;99354.84;5022468;28;20215;-57
2023/01/09 01:10:21;;;;;;;1.90;1.70;;;8.90;86.30;;;11.75;59.96;99352.13;5022578;28;20199;-57
2023/01/09 01:12:50;;;;;;;2.57;1.80;;;9.00;86.20;;;11.79;60.03;99348.84;5021924;28;20191;-57
2023/01/09 01:15:18;;;;;;;2.60;2.13;;;9.00;86.10;;;11.84;60.01;99349.00;5018987;28;20199;-57
2023/01/09 01:17:45;;;;;;;2.10;1.90;;;9.10;86.10;;;11.89;59.75;99346.53;5016739;28;20265;-57
2023/01/09 01:20:17;;;;;;;2.10;1.90;;;9.10;85.90;;;11.90;60.03;99348.16;5018097;28;20195;-56
2023/01/09 01:22:44;;;;;;;3.43;1.73;;;9.20;85.80;;;11.95;59.83;99345.69;5026910;28;20191;-57
2023/01/09 01:25:16;;;;;;;2.70;2.03;;;9.20;85.80;;;11.98;59.82;99344.44;5014953;28;20199;-54
2023/01/09 01:27:44;;;;;;;3.50;2.20;;;9.20;85.60;;;11.97;59.45;99343.63;5014828;28;20218;-56
2023/01/09 01:30:14;;;;;;;3.70;2.10;;;9.30;85.50;;;11.98;59.69;99345.22;5016569;28;20199;-55
2023/01/09 01:32:42;;;;;;;3.73;2.10;;;9.30;85.40;;;12.01;59.58;99350.06;5016576;28;20183;-55
2023/01/09 01:35:11;;;;;;;2.77;1.90;;;9.30;85.40;;;12.00;59.48;99348.47;5015350;28;20241;-57
2023/01/09 01:37:38;;;;;;;2.83;1.90;;;9.30;85.20;;;11.92;59.64;99346.09;5016626;28;20211;-56
2023/01/09 01:40:08;;;;;;;2.40;2.20;;;9.30;85.20;;;11.93;59.71;99352.97;5016197;28;20248;-55
2023/01/09 01:42:45;;;;;;;3.17;2.00;;;9.30;85.20;;;11.94;59.83;99361.69;5016526;28;20193;-55
2023/01/09 01:45:14;;;;;;;3.17;2.07;;;9.40;85.50;;;11.94;60.15;99369.59;5016000;28;20229;-56
2023/01/09 01:47:51;;;;;;;2.60;2.10;;;9.40;85.60;;;11.90;60.72;99363.16;5015945;28;20211;-57
2023/01/09 01:50:28;;;;;;;3.63;2.37;;;9.40;86.20;;;11.84;61.17;99359.56;5016359;28;20198;-56
2023/01/09 01:53:08;;;;;;;2.30;2.10;;;9.40;86.90;;;11.71;62.28;99359.69;5016533;28;20220;-54
2023/01/09 01:55:41;;;;;;;2.33;2.13;;;9.30;87.50;;;11.60;63.01;99357.69;5020779;28;20193;-56
2023/01/09 01:58:14;;;;;;;2.33;2.13;;;9.30;88.00;;;11.53;63.03;99356.94;5036377;28;20702;-56
2023/01/09 02:00:45;;;;;;;2.80;2.50;;;9.30;88.40;;;11.52;63.38;99371.16;5034881;28;20732;-56
2023/01/09 02:03:17;;;;;;;3.63;2.50;;;9.20;88.70;;;11.48;63.31;99362.06;5035732;28;20219;-54
2023/01/09 02:05:44;;;;;;;2.60;2.40;;;9.20;89.10;;;11.53;63.68;99354.31;5035465;28;20190;-54
2023/01/09 02:08:12;;;;;;;2.73;2.23;;;9.10;88.70;;;11.57;64.21;99363.41;5034585;28;20272;-55
2023/01/09 02:10:39;;;;;;;2.70;2.27;;;9.10;89.50;;;11.55;64.60;99360.19;5028737;28;20590;-54
2023/01/09 02:13:10;;;;;;;3.03;2.73;;;9.10;90.00;;;11.52;64.14;99350.06;5015862;28;20654;-54
2023/01/09 02:15:55;;;;;;;2.60;2.40;;;9.10;90.20;;;11.47;65.12;99360.44;5015817;28;20586;-57
2023/01/09 02:18:53;;;;;;;3.53;2.93;;;9.10;90.40;;;11.46;65.02;99361.44;5014750;28;20223;-54
2023/01/09 02:21:37;;;;;;;2.63;2.43;;;9.10;90.50;;;11.52;64.73;99348.25;5015060;28;20211;-55
2023/01/09 02:24:27;;;;;;;3.37;2.80;;;9.10;90.40;;;11.57;64.68;99343.16;5015796;28;20211;-55
2023/01/09 02:27:57;;;;;;;2.77;2.57;;;9.10;90.50;;;11.65;64.73;99343.91;5029092;28;20591;-57
2023/01/09 02:30:37;;;;;;;2.73;2.37;;;9.10;90.50;;;11.75;64.61;99345.03;5035247;28;20190;-58
2023/01/09 02:33:31;;;;;;;3.87;2.60;;;9.20;90.50;;;11.79;64.39;99340.94;5035287;28;20206;-57
2023/01/09 02:36:20;;;;;;;4.93;2.53;;;9.20;90.60;;;11.86;64.28;99331.13;5034938;28;20249;-57
2023/01/09 02:39:09;;;;;;;2.60;2.40;;;9.20;90.60;;;11.94;63.97;99330.88;5034896;28;20206;-57
2023/01/09 02:41:45;;;;;;;3.27;2.60;;;9.30;90.60;;;12.01;63.82;99342.16;5035126;28;20241;-57
2023/01/09 02:44:19;;;;;;;3.17;2.87;;;9.30;90.50;;;12.06;63.45;99346.78;5035210;28;20214;-57
2023/01/09 02:46:58;;;;;;;3.43;2.70;;;9.30;90.60;;;12.10;63.52;99342.66;5034591;28;20193;-56
2023/01/09 02:49:26;;;;;;;2.77;2.50;;;9.30;90.60;;;12.15;63.69;99333.09;5033554;28;20193;-55
2023/01/09 02:52:07;;;;;;;3.13;2.90;;;9.30;90.70;;;12.19;63.42;99331.59;5034867;28;20201;-55
2023/01/09 02:54:52;;;;;;;2.90;2.70;;;9.40;90.70;;;12.23;63.40;99338.06;5034757;28;20245;-57
2023/01/09 02:57:45;;;;;;;3.20;2.90;;;9.40;90.70;;;12.30;63.43;99345.09;5034431;28;20209;-57
2023/01/09 03:00:32;;;;;;;2.73;2.53;;;9.50;90.70;;;12.34;63.28;99333.09;5033931;28;20182;-57
2023/01/09 03:03:14;;;;;;;3.53;3.23;;;9.50;90.70;;;12.33;62.99;99337.56;5016012;28;20265;-55
2023/01/09 03:05:51;;;;;;;3.43;3.13;;;9.50;90.60;;;12.31;63.58;99339.63;5015304;28;20226;-54
2023/01/09 03:08:24;;;;;;;3.03;2.83;;;9.60;90.70;;;12.30;63.75;99332.72;5014893;28;20233;-54
2023/01/09 03:10:58;;;;;;;5.47;3.80;;;9.60;90.60;;;12.32;63.50;99329.84;5015266;28;20184;-57
2023/01/09 03:13:32;;;;;;;3.50;3.20;;;9.60;90.70;;;12.28;63.82;99326.06;5014878;28;20186;-54
2023/01/09 03:16:06;;;;;;;3.30;3.00;;;9.70;90.70;;;12.27;63.90;99327.06;5014556;28;20195;-56
2023/01/09 03:18:37;;;;;;;3.17;2.97;;;9.70;90.60;;;12.32;63.66;99329.84;5014581;28;20206;-54
2023/01/09 03:21:07;;;;;;;3.73;3.30;;;9.70;90.60;;;12.32;64.00;99329.84;5014791;28;20171;-57
2023/01/09 03:23:51;;;;;;;3.00;2.67;;;9.70;90.60;;;12.27;63.99;99327.88;5014544;28;20191;-56
2023/01/09 03:26:18;;;;;;;2.80;2.60;;;9.70;90.50;;;12.30;64.01;99321.34;5014589;28;20184;-55
2023/01/09 03:28:46;;;;;;;2.73;2.53;;;9.70;90.50;;;12.32;63.72;99324.56;5014371;28;20217;-55
2023/01/09 03:31:14;;;;;;;3.37;3.07;;;9.70;90.40;;;12.38;63.89;99323.72;5014544;28;20194;-56
2023/01/09 03:33:42;;;;;;;2.53;2.33;;;9.80;90.50;;;12.41;63.67;99323.28;5014157;28;20209;-55
2023/01/09 03:36:11;;;;;;;2.67;2.47;;;9.80;90.40;;;12.43;63.64;99327.28;5014053;28;20246;-56
2023/01/09 03:38:38;;;;;;;2.53;2.00;;;9.80;90.80;;;12.48;63.76;99318.72;5014187;28;20210;-57
2023/01/09 03:41:06;;;;;;;3.10;2.30;;;9.80;90.50;;;12.53;63.53;99318.84;5014551;28;20206;-57
2023/01/09 03:43:34;;;;;;;2.63;2.43;;;9.80;90.50;;;12.52;63.64;99318.06;5029025;28;20198;-57
2023/01/09 03:46:01;;;;;;;4.70;2.40;;;9.80;90.40;;;12.52;63.44;99319.88;5033887;28;20203;-57
2023/01/09 03:48:28;;;;;;;2.80;2.30;;;9.80;90.40;;;12.54;63.37;99313.34;5034081;28;20221;-56
2023/01/09 03:50:56;;;;;;;2.40;2.20;;;9.90;90.40;;;12.55;63.49;99320.22;5033367;28;20240;-57
2023/01/09 03:53:27;;;;;;;2.60;2.40;;;9.90;90.40;;;12.58;63.64;99314.50;5033481;28;20214;-54
2023/01/09 03:55:56;;;;;;;2.20;1.93;;;9.90;90.50;;;12.60;63.55;99322.22;5031425;28;20189;-55
2023/01/09 03:58:25;;;;;;;3.30;2.97;;;9.90;90.40;;;12.60;63.30;99317.72;5032081;28;20226;-57
2023/01/09 04:00:57;;;;;;;3.93;2.83;;;9.90;90.50;;;12.61;63.47;99318.53;5033765;28;20199;-57
2023/01/09 04:03:25;;;;;;;2.20;2.00;;;9.90;90.50;;;12.59;63.38;99325.88;5025923;28;20215;-55
2023/01/09 04:05:52;;;;;;;3.00;2.80;;;9.90;90.40;;;12.60;63.51;99311.69;5013143;28;20207;-57
2023/01/09 04:08:20;;;;;;;2.50;2.30;;;10.00;90.00;;;12.65;63.66;99314.44;5013875;28;20211;-55
2023/01/09 04:10:49;;;;;;;2.30;1.90;;;10.00;89.90;;;12.71;63.30;99319.63;5017260;28;20195;-55
2023/01/09 04:13:16;;;;;;;2.67;2.07;;;10.00;90.00;;;12.74;63.12;99319.16;5025402;28;20297;-54
2023/01/09 04:15:43;;;;;;;1.90;1.80;;;10.00;89.90;;;12.80;63.11;99317.47;5033131;28;20183;-56
2023/01/09 04:18:10;;;;;;;2.20;2.00;;;10.00;89.90;;;12.84;63.22;99318.63;5033038;28;20210;-53
2023/01/09 04:20:37;;;;;;;2.30;2.10;;;10.00;89.80;;;12.84;62.73;99318.63;5033114;28;20198;-55
2023/01/09 04:23:04;;;;;;;2.70;2.17;;;10.10;89.60;;;12.83;62.73;99314.41;5016289;28;20214;-56
2023/01/09 04:25:33;;;;;;;2.10;1.93;;;10.10;89.30;;;12.73;62.80;99306.22;5013405;28;20571;-54
2023/01/09 04:28:00;;;;;;;2.57;2.20;;;10.10;89.10;;;12.65;63.01;99304.69;5013479;28;20297;-53
2023/01/09 04:30:26;;;;;;;2.70;1.83;;;10.10;88.90;;;12.61;63.20;99298.25;5014035;28;20199;-56
2023/01/09 04:32:53;;;;;;;2.83;1.67;;;10.10;88.70;;;12.62;63.06;99294.56;5013662;28;20195;-57
2023/01/09 04:35:20;;;;;;;1.73;1.63;;;10.10;88.80;;;12.63;63.12;99305.94;5013720;28;20199;-57
2023/01/09 04:37:47;;;;;;;2.60;2.40;;;10.10;88.80;;;12.58;63.03;99309.22;5013273;28;20586;-57
2023/01/09 04:40:14;;;;;;;2.07;1.97;;;10.00;88.60;;;12.58;63.32;99318.97;5013014;28;20195;-54
2023/01/09 04:42:43;;;;;;;1.80;1.70;;;10.00;88.70;;;12.64;62.98;99312.84;5012983;28;20197;-54
2023/01/09 04:45:11;;;;;;;1.90;1.73;;;10.00;88.90;;;12.68;62.92;99319.25;5012857;28;20761;-55
2023/01/09 04:47:38;;;;;;;1.90;1.70;;;10.00;89.10;;;12.70;62.92;99333.03;5012754;28;20294;-54
2023/01/09 04:50:05;;;;;;;1.67;1.57;;;10.00;88.90;;;12.72;62.85;99323.06;5022342;28;20295;-54
2023/01/09 04:52:32;;;;;;;2.20;1.90;;;10.10;89.10;;;12.71;62.63;99332.03;5040460;28;20190;-57
2023/01/09 04:54:59;;;;;;;2.27;1.80;;;10.00;88.90;;;12.70;62.62;99333.03;5032893;28;20191;-57
2023/01/09 04:57:26;;;;;;;1.70;1.60;;;10.00;88.80;;;12.67;62.94;99336.94;5033065;28;20213;-57
2023/01/09 04:59:54;;;;;;;2.10;1.90;;;10.00;88.80;;;12.66;63.03;99339.81;5034332;28;20265;-59
2023/01/09 05:02:21;;;;;;;2.80;2.40;;;10.10;89.00;;;12.64;63.00;99339.22;5034744;28;20209;-57
2023/01/09 05:04:48;;;;;;;2.03;1.90;;;10.00;88.90;;;12.64;63.23;99352.44;5020532;28;20273;-55
2023/01/09 05:07:15;;;;;;;2.33;2.03;;;10.00;89.00;;;12.63;63.09;99348.16;5016706;28;20651;-53
2023/01/09 05:09:42;;;;;;;3.17;2.67;;;10.00;89.00;;;12.63;63.19;99353.44;5016903;28;20195;-57
2023/01/09 05:12:09;;;;;;;3.50;2.23;;;10.00;89.10;;;12.63;62.85;99348.16;5017076;28;20241;-57
2023/01/09 05:14:36;;;;;;;2.40;2.20;;;10.00;89.10;;;12.63;62.97;99353.44;5016983;28;20191;-56
2023/01/09 05:17:05;;;;;;;3.03;2.63;;;10.00;89.10;;;12.63;63.33;99358.72;5017466;28;20191;-57
2023/01/09 05:19:33;;;;;;;3.33;2.60;;;10.00;89.30;;;12.66;62.93;99358.28;5016693;28;20662;-53
2023/01/09 05:22:00;;;;;;;3.10;2.00;;;10.00;89.40;;;12.71;63.26;99363.72;5031769;28;20298;-57
2023/01/09 05:24:27;;;;;;;3.07;2.57;;;10.00;89.40;;;12.75;63.19;99367.50;5016115;28;20215;-57
2023/01/09 05:26:55;;;;;;;3.17;2.73;;;10.00;89.40;;;12.74;62.87;99371.19;5016346;28;20267;-56
2023/01/09 05:29:21;;;;;;;3.03;2.20;;;10.00;89.20;;;12.77;62.83;99376.81;5016161;28;20272;-54
2023/01/09 05:31:48;;;;;;;2.83;2.63;;;10.00;89.30;;;12.79;62.94;99374.75;5024622;28;20190;-56
2023/01/09 05:34:17;;;;;;;2.67;2.47;;;10.00;89.30;;;12.84;62.42;99379.38;5036090;28;20750;-57
2023/01/09 05:36:44;;;;;;;2.77;2.00;;;10.00;89.20;;;12.86;62.62;99379.94;5035602;28;20278;-56
2023/01/09 05:39:11;;;;;;;1.80;1.60;;;10.10;89.20;;;12.89;62.50;99384.78;5035916;28;20214;-55
2023/01/09 05:41:38;;;;;;;2.60;2.30;;;10.10;89.00;;;12.88;62.17;99383.19;5034864;28;20686;-55
2023/01/09 05:44:05;;;;;;;2.30;2.20;;;10.10;88.70;;;12.88;62.16;99380.56;5051073;28;20214;-56
2023/01/09 05:46:32;;;;;;;1.80;1.70;;;10.10;88.50;;;12.84;62.04;99380.19;5019992;28;20706;-55
2023/01/09 05:48:59;;;;;;;2.13;1.93;;;10.10;88.20;;;12.77;62.01;99386.56;5028059;28;20249;-57
2023/01/09 05:51:27;;;;;;;2.00;1.90;;;10.10;87.80;;;12.68;62.01;99387.91;5035793;28;20650;-57
2023/01/09 05:53:54;;;;;;;2.50;2.00;;;10.10;87.50;;;12.62;62.06;99389.59;5035774;28;20263;-57
2023/01/09 05:56:21;;;;;;;3.10;2.40;;;10.00;87.50;;;12.54;62.18;99397.00;5035208;28;20252;-59
2023/01/09 05:58:48;;;;;;;1.93;1.83;;;10.00;87.40;;;12.50;62.09;99395.84;5051121;28;20225;-56
2023/01/09 06:01:15;;;;;;;2.40;2.20;;;10.00;87.50;;;12.43;62.36;99395.09;5035232;28;20223;-56
2023/01/09 06:03:42;;;;;;;2.30;2.10;;;9.90;88.50;;;12.35;62.46;99396.19;5035513;28;20194;-56
2023/01/09 06:06:09;;;;;;;2.30;2.10;;;9.90;88.60;;;12.33;62.19;99405.34;5035042;28;20226;-56
2023/01/09 06:08:37;;;;;;;2.00;1.80;;;9.90;88.70;;;12.28;62.49;99403.38;5035525;28;20272;-58
2023/01/09 06:11:04;;;;;;;2.63;2.20;;;9.80;88.60;;;12.23;62.62;99411.13;5051317;28;20202;-58
2023/01/09 06:13:31;;;;;;;3.23;2.20;;;9.80;88.60;;;12.21;62.67;99400.81;5027313;28;20194;-56
2023/01/09 06:15:58;;;;;;;3.40;2.07;;;9.80;88.70;;;12.20;62.75;99412.38;5015051;28;20197;-57
2023/01/09 06:18:25;;;;;;;1.93;1.83;;;9.70;88.80;;;12.23;62.82;99411.13;5016130;28;20276;-56
2023/01/09 06:20:52;;;;;;;2.50;2.10;;;9.70;89.10;;;12.24;62.61;99413.53;5015142;28;20218;-57
2023/01/09 06:23:19;;;;;;;2.93;2.67;;;9.70;89.50;;;12.22;62.45;99415.59;5015318;28;20202;-56
2023/01/09 06:25:47;;;;;;;2.97;2.23;;;9.60;89.00;;;12.23;62.90;99425.13;5014843;28;20655;-55
2023/01/09 06:28:14;;;;;;;3.67;2.53;;;9.60;89.30;;;12.20;62.28;99430.84;5025885;28;20285;-58
2023/01/09 06:30:41;;;;;;;2.90;2.70;;;9.60;88.90;;;12.18;62.56;99430.25;5024616;28;20253;-54
2023/01/09 06:33:07;;;;;;;3.50;2.70;;;9.60;89.00;;;12.18;62.55;99424.97;5015095;28;20195;-57
2023/01/09 06:35:34;;;;;;;2.60;2.40;;;9.60;88.80;;;12.16;62.29;99437.56;5014989;28;20644;-55
2023/01/09 06:38:02;;;;;;;3.03;2.50;;;9.60;88.70;;;12.15;62.14;99430.66;5015108;28;20265;-57
2023/01/09 06:40:29;;;;;;;5.43;3.53;;;9.50;88.50;;;12.13;61.96;99442.47;5015674;28;20278;-58
2023/01/09 06:42:57;;;;;;;8.30;7.50;;;9.50;88.70;;;12.12;62.38;99440.88;5034743;28;20264;-57
2023/01/09 06:45:24;;;;;;;5.03;3.57;;;9.40;89.20;;;12.13;62.48;99442.47;5033994;28;20210;-56
2023/01/09 06:47:51;;;;;;;4.80;3.83;;;9.40;89.40;;;12.09;62.24;99446.56;5034905;28;20210;-56
2023/01/09 06:50:18;;;;;;;5.87;4.67;;;9.40;89.00;;;12.02;62.33;99451.91;5034795;28;20573;-58
2023/01/09 06:52:45;;;;;;;6.20;2.90;;;9.50;89.10;;;12.02;62.42;99446.63;5022559;28;20285;-57
2023/01/09 06:55:12;;;;;;;4.60;3.77;;;9.50;88.90;;;12.01;62.39;99452.91;5016239;28;20214;-57
2023/01/09 06:57:45;;;;;;;4.13;3.50;;;9.40;89.00;;;11.99;61.97;99456.78;5029665;28;20572;-57
2023/01/09 07:00:16;;;;;;;6.10;3.83;;;9.40;88.80;;;11.90;62.27;99458.06;5034465;28;20199;-57
2023/01/09 07:02:48;;;;;;;4.80;4.33;;;9.40;88.20;;;11.80;61.83;99458.56;5031772;28;20195;-58
2023/01/09 07:05:15;;;;;;;9.07;6.40;;;9.30;87.90;;;11.76;62.52;99457.38;5023876;28;20213;-58
2023/01/09 07:07:42;;;;;;;4.70;4.20;;;9.20;88.20;;;11.71;62.20;99467.75;5021781;28;20254;-56
2023/01/09 07:10:10;;;;;;;6.57;5.03;;;9.20;88.30;;;11.70;62.60;99466.13;5015274;28;20195;-55
2023/01/09 07:12:37;;;;;;;6.60;4.97;;;9.20;88.70;;;11.67;62.18;99463.88;5012891;28;20609;-57
2023/01/09 07:15:05;;;;;;;5.03;4.60;;;9.10;88.40;;;11.65;62.23;99471.19;5015517;28;20222;-55
2023/01/09 07:17:34;;;;;;;7.07;5.03;;;9.20;88.20;;;11.59;62.30;99472.03;5015838;28;20218;-59
2023/01/09 07:20:02;;;;;;;5.20;4.70;;;9.10;88.00;;;11.54;62.27;99474.50;5033428;28;20675;-55
2023/01/09 07:22:29;;;;;;;6.20;4.20;;;9.10;88.20;;;11.43;62.34;99472.56;5028277;28;20203;-56
2023/01/09 07:24:56;;;;;;;6.23;4.27;;;9.00;88.10;;;11.36;62.82;99479.69;5015745;28;20273;-63
2023/01/09 07:27:24;;;;;;;6.50;4.60;;;8.90;88.20;;;11.33;62.69;99493.25;5028333;28;20225;-55
2023/01/09 07:29:59;;;;;;;5.37;4.50;;;8.90;88.30;;;11.28;62.95;99490.44;5024389;28;20194;-58
2023/01/09 07:32:26;;;;;;;4.83;4.43;;;8.80;88.40;;;11.19;63.29;99491.72;5028744;28;20242;-58
2023/01/09 07:34:59;;;;;;;8.77;5.20;;;8.80;89.40;;;11.16;62.90;99492.13;5014798;28;20199;-54
2023/01/09 07:37:26;;;;;;;6.57;5.40;;;8.80;88.60;;;11.12;62.95;99490.94;5034420;28;20302;-56
2023/01/09 07:39:53;;;;;;;6.20;5.40;;;8.70;89.00;;;11.12;63.29;99496.19;5014731;28;20199;-58
2023/01/09 07:42:20;;;;;;;10.73;8.37;;;8.70;88.90;;;11.09;63.33;99504.50;5025959;28;20548;-56
2023/01/09 07:44:46;;;;;;;6.87;5.97;;;8.60;89.20;;;11.03;63.85;99502.72;5026496;28;20265;-56
2023/01/09 07:47:13;;;;;;;7.00;6.00;;;8.60;89.10;;;11.04;63.66;99520.09;5014493;28;20289;-55
2023/01/09 07:49:40;;;;;;;8.83;6.10;;;8.60;89.10;;;11.00;63.65;99524.19;5020956;28;20207;-56
2023/01/09 07:52:11;;;;;;;7.43;5.93;;;8.60;89.40;;;11.02;63.77;99527.41;5033600;28;20244;-54
2023/01/09 07:54:38;;;;;;;8.17;6.03;;;8.60;89.30;;;11.03;63.32;99539.56;5022435;28;20261;-55
2023/01/09 07:57:05;;;;;;;9.63;6.37;;;8.60;89.40;;;11.07;63.66;99546.03;5031221;28;20659;-58
2023/01/09 07:59:33;;;;;;;9.07;5.67;;;8.60;89.50;;;10.99;64.09;99548.88;5027123;28;20302;-58
2023/01/09 08:02:01;;;;;;;6.50;5.90;;;8.60;89.50;;;11.06;63.49;99554.94;5030711;28;20240;-57
2023/01/09 08:04:28;;;;;;;9.03;6.47;;;8.60;89.60;;;11.06;63.60;99555.75;5020485;28;20195;-57
2023/01/09 08:06:55;;;;;;;10.93;5.67;;;8.60;89.40;;;11.17;63.10;99564.84;5022639;28;20227;-57
2023/01/09 08:09:24;;;;;;;8.73;6.67;;;8.60;89.60;;;11.33;63.33;99562.56;5025794;28;20265;-56
2023/01/09 08:11:51;;;;;;;9.27;6.10;;;8.70;89.80;;;11.47;63.19;99558.03;5020291;28;20285;-56
2023/01/09 08:14:28;;;;;;;9.50;6.30;;;8.80;90.00;;;11.57;62.08;99563.69;5022279;28;20194;-58
2023/01/09 08:16:58;;;;;;;7.60;6.10;;;8.80;89.50;;;11.65;62.14;99555.53;5011514;28;20201;-56
2023/01/09 08:19:25;;;;;;;7.27;5.63;;;8.90;89.20;;;11.73;62.14;99563.22;5026224;28;20207;-56
2023/01/09 08:21:52;;;;;;;5.80;5.17;;;9.00;89.10;;;11.85;61.94;99563.38;5023857;28;20191;-57
2023/01/09 08:24:19;;;;;;;8.83;6.33;;;9.00;89.80;;;11.89;60.85;99562.72;5028902;28;20206;-56
2023/01/09 08:26:48;;;;;;;9.50;6.10;;;9.10;88.20;;;11.91;60.96;99570.44;5029446;28;20539;-56
2023/01/09 08:29:16;;;;;;;6.53;5.07;;;9.10;87.90;;;11.88;61.18;99574.31;5013177;28;20238;-57
2023/01/09 08:31:43;;;;;;;8.50;6.10;;;9.20;87.50;;;11.79;60.86;99575.53;5017925;28;20289;-56
2023/01/09 08:34:10;;;;;;;4.67;4.27;;;9.10;86.80;;;11.77;60.90;99580.22;5016844;28;20193;-57
2023/01/09 08:36:37;;;;;;;6.37;4.93;;;9.20;86.90;;;11.87;60.87;99585.03;5027190;28;20221;-55
2023/01/09 08:39:04;;;;;;;9.37;5.13;;;9.20;87.10;;;11.79;60.20;99577.41;5017548;28;20222;-56
2023/01/09 08:47:23;;;;;;;5.70;4.83;;;9.20;86.30;;;11.90;60.40;99585.44;4975453;28;20290;-54
2023/01/09 08:49:50;;;;;;;8.03;4.60;;;9.20;86.50;;;11.96;60.14;99579.31;5009868;28;20683;-58
2023/01/09 08:52:17;;;;;;;6.97;4.67;;;9.30;86.30;;;11.95;60.19;99587.44;5017451;28;20214;-57
2023/01/09 08:54:44;;;;;;;10.47;5.10;;;9.30;85.90;;;12.02;59.88;99581.13;5021993;28;20198;-55
2023/01/09 08:57:11;;;;;;;8.30;5.73;;;9.30;85.70;;;12.13;59.78;99583.06;5032499;28;20663;-58
2023/01/09 08:59:39;;;;;;;9.13;6.70;;;9.40;85.80;;;12.23;59.75;99580.78;5023931;28;20205;-54
2023/01/09 09:02:06;;;;;;;7.77;5.33;;;9.40;85.90;;;12.29;59.00;99588.84;5030495;28;20198;-55
2023/01/09 09:04:33;;;;;;;6.60;3.93;;;9.50;85.50;;;12.31;58.87;99592.09;5023699;28;20207;-57
2023/01/09 09:07:00;;;;;;;7.60;4.57;;;9.50;85.00;;;12.35;58.84;99590.63;4999882;28;20743;-55
2023/01/09 09:09:27;;;;;;;6.63;3.83;;;9.50;84.80;;;12.30;58.77;99595.72;5020697;28;20211;-54
2023/01/09 09:11:54;;;;;;;7.60;4.27;;;9.60;84.50;;;12.24;58.14;99592.91;5030428;28;20258;-57
2023/01/09 09:17:09;;;;;;;6.40;4.07;;;9.60;83.70;;;12.18;58.63;99583.25;5021526;28;20195;-57
2023/01/09 09:19:38;;;;;;;5.93;4.03;;;9.60;83.60;;;12.26;58.75;99584.00;5017144;28;20192;-55
2023/01/09 09:22:05;;;;;;;6.53;3.47;;;9.60;83.90;;;12.36;58.32;99579.06;5025182;28;20199;-57
2023/01/09 09:24:32;;;;;;;7.47;4.10;;;9.60;84.00;;;12.36;57.94;99584.34;5020906;28;20195;-55
2023/01/09 09:26:59;;;;;;;4.93;3.90;;;9.70;83.30;;;12.32;58.00;99583.13;5016744;28;20223;-58
2023/01/09 09:29:27;;;;;;;7.30;3.67;;;9.70;82.90;;;12.29;57.92;99584.38;5017370;28;20683;-58
2023/01/09 09:31:54;;;;;;;4.33;3.20;;;9.70;82.80;;;12.35;58.14;99582.72;5018296;28;20305;-56
2023/01/09 09:34:22;;;;;;;4.60;3.70;;;9.70;82.90;;;12.39;57.86;99592.63;5021112;28;20205;-55
2023/01/09 09:36:49;;;;;;;5.37;3.20;;;9.70;82.90;;;12.36;57.83;99590.41;5018138;28;20278;-57
2023/01/09 09:39:16;;;;;;;6.87;3.57;;;9.70;82.60;;;12.36;57.44;99586.97;5001007;28;20690;-55
2023/01/09 09:45:23;;;;;;;4.73;3.70;;;9.70;82.60;;;12.38;57.81;99590.22;5030750;28;20226;-56
2023/01/09 09:48:03;;;;;;;6.10;4.50;;;9.80;82.70;;;12.44;57.95;99587.50;5026065;28;20230;-56
2023/01/09 09:51:10;;;;;;;6.60;4.33;;;9.80;82.90;;;12.60;57.55;99596.75;5022451;28;20195;-59
2023/01/09 09:53:50;;;;;;;5.83;4.30;;;9.90;83.40;;;12.76;57.45;99602.28;5033404;28;20197;-57
2023/01/09 09:56:22;;;;;;;6.20;4.40;;;9.90;83.00;;;12.79;56.92;99601.84;5045390;28;20249;-57
2023/01/09 09:58:55;;;;;;;6.23;3.87;;;10.00;81.40;;;12.81;57.19;99606.91;5025529;28;20283;-58
2023/01/09 10:01:32;;;;;;;7.03;4.67;;;10.00;81.40;;;12.70;57.16;99602.31;5025329;28;20221;-58
2023/01/09 10:04:06;;;;;;;8.27;4.70;;;10.00;81.20;;;12.78;57.77;99604.69;5040380;28;20281;-59
2023/01/09 10:06:41;;;;;;;7.47;4.57;;;10.10;81.50;;;12.83;57.43;99610.16;5037081;28;20964;-58
2023/01/09 10:09:23;;;;;;;6.00;5.40;;;10.10;81.70;;;12.90;57.50;99603.78;5038735;28;20226;-61
2023/01/09 10:12:00;;;;;;;10.07;5.70;;;10.20;81.90;;;12.91;57.25;99609.84;5039016;28;20183;-57
2023/01/09 10:14:30;;;;;;;6.90;5.60;;;10.20;81.70;;;12.87;57.46;99606.03;5037276;28;20225;-59
2023/01/09 10:17:44;;;;;;;7.73;5.33;;;10.20;81.60;;;12.80;57.77;99610.56;5039849;28;20265;-57
2023/01/09 10:20:38;;;;;;;6.67;5.90;;;10.20;81.70;;;12.75;57.98;99610.41;5038731;28;20527;-58
2023/01/09 10:23:35;;;;;;;5.67;4.60;;;10.20;81.80;;;12.61;58.26;99603.63;5032676;28;20214;-57
2023/01/09 10:26:10;;;;;;;5.97;4.67;;;10.20;81.70;;;12.64;58.51;99603.19;5035955;28;20223;-57
2023/01/09 10:29:06;;;;;;;9.03;6.13;;;10.20;82.00;;;12.71;58.35;99603.94;5041888;28;20230;-58
2023/01/09 10:31:51;;;;;;;7.93;6.00;;;10.20;82.40;;;12.81;58.35;99599.78;5025072;28;20207;-57
2023/01/09 10:34:44;;;;;;;5.63;4.90;;;10.20;82.50;;;12.97;57.77;99602.91;5013866;28;20187;-58
2023/01/09 10:37:19;;;;;;;8.47;5.67;;;10.30;82.50;;;13.02;57.26;99603.06;5025861;28;20223;-59
2023/01/09 10:39:55;;;;;;;6.97;5.37;;;10.30;81.80;;;12.94;57.51;99601.50;5037879;28;20179;-59
2023/01/09 10:42:32;;;;;;;9.03;5.17;;;10.30;81.60;;;12.97;57.60;99598.44;5036450;28;20174;-57
2023/01/09 10:45:05;;;;;;;8.20;5.80;;;10.30;81.60;;;13.01;57.10;99604.88;5038741;28;20197;-58
2023/01/09 10:47:36;;;;;;;8.03;5.37;;;10.30;81.40;;;12.98;57.50;99596.59;5026482;28;20318;-57
2023/01/09 10:50:19;;;;;;;5.97;5.37;;;10.40;81.50;;;13.00;57.43;99603.28;5018429;28;20567;-58
2023/01/09 10:52:50;;;;;;;10.13;5.37;;;10.40;81.50;;;13.08;57.36;99605.66;5017752;28;20191;-59
2023/01/09 10:55:33;;;;;;;10.17;5.13;;;10.40;81.50;;;13.14;56.95;99599.50;5018984;28;20252;-58